createdAt,value
2022-08-27T00:01:45.386Z,4.00
2022-08-27T00:04:15.633Z,3.47
2022-08-27T00:06:46.392Z,3.53
2022-08-27T00:11:57.645Z,3.95
2022-08-27T00:14:28.926Z,3.53
2022-08-27T00:17:01.802Z,4.32
2022-08-27T00:19:32.126Z,3.80
2022-08-27T00:22:02.418Z,4.18
2022-08-27T00:24:32.663Z,4.40
2022-08-27T00:27:03.068Z,4.32
2022-08-27T00:32:08.049Z,4.43
2022-08-27T00:34:38.346Z,4.88
2022-08-27T00:37:09.463Z,4.47
2022-08-27T00:39:39.864Z,5.20
2022-08-27T00:42:10.764Z,4.93
2022-08-27T00:44:41.333Z,5.45
2022-08-27T00:49:56.577Z,5.55
2022-08-27T00:52:32.069Z,5.80
2022-08-27T00:55:08.030Z,5.20
2022-08-27T00:57:41.736Z,5.20
2022-08-27T01:00:19.053Z,5.00
2022-08-27T01:02:52.174Z,4.60
2022-08-27T01:05:26.605Z,4.90
2022-08-27T01:08:06.567Z,5.00
2022-08-27T01:10:37.644Z,5.45
2022-08-27T01:13:10.772Z,5.45
2022-08-27T01:15:44.842Z,6.25
2022-08-27T01:18:19.477Z,5.55
2022-08-27T01:21:05.152Z,5.22
2022-08-27T01:23:41.389Z,5.93
2022-08-27T01:26:18.045Z,6.60
2022-08-27T01:28:49.143Z,8.05
2022-08-27T01:31:19.508Z,7.65
2022-08-27T01:33:59.053Z,9.20
2022-08-27T01:36:29.511Z,11.00
2022-08-27T01:38:59.799Z,11.25
2022-08-27T01:41:33.396Z,11.48
2022-08-27T01:44:04.143Z,12.63
2022-08-27T01:46:34.479Z,12.27
2022-08-27T01:49:04.733Z,12.25
2022-08-27T01:51:34.953Z,12.73
2022-08-27T01:54:05.343Z,12.98
2022-08-27T01:56:38.158Z,13.05
2022-08-27T01:59:08.455Z,15.13
2022-08-27T02:01:39.556Z,15.20
2022-08-27T02:04:09.797Z,15.38
2022-08-27T02:06:40.187Z,15.98
2022-08-27T02:09:10.361Z,15.63
2022-08-27T02:11:44.841Z,14.35
2022-08-27T02:14:15.625Z,16.70
2022-08-27T02:16:46.351Z,16.00
2022-08-27T02:19:24.428Z,17.38
2022-08-27T02:21:54.713Z,15.98
2022-08-27T02:24:24.936Z,16.63
2022-08-27T02:26:58.528Z,18.08
2022-08-27T02:29:29.291Z,17.58
2022-08-27T02:32:00.074Z,17.27
2022-08-27T02:34:30.512Z,15.35
2022-08-27T02:37:00.699Z,16.15
2022-08-27T02:39:30.935Z,16.80
2022-08-27T02:42:04.102Z,17.63
2022-08-27T02:44:35.718Z,20.17
2022-08-27T02:47:06.110Z,18.98
2022-08-27T02:49:37.012Z,17.52
2022-08-27T02:52:07.655Z,16.90
2022-08-27T02:57:12.421Z,17.20
2022-08-27T02:59:42.664Z,19.23
2022-08-27T03:02:12.986Z,19.38
2022-08-27T03:04:43.819Z,19.50
2022-08-27T03:07:18.661Z,19.10
2022-08-27T03:09:49.287Z,18.92
2022-08-27T03:12:22.754Z,18.77
2022-08-27T03:14:55.096Z,19.50
2022-08-27T03:17:37.784Z,18.70
2022-08-27T03:20:11.268Z,18.85
2022-08-27T03:22:42.346Z,20.48
2022-08-27T03:25:13.068Z,19.63
2022-08-27T03:27:46.127Z,19.20
2022-08-27T03:30:21.201Z,19.90
2022-08-27T03:32:52.019Z,20.27
2022-08-27T03:35:24.104Z,19.33
2022-08-27T03:37:54.465Z,20.63
2022-08-27T03:40:24.844Z,20.58
2022-08-27T03:42:57.724Z,20.90
2022-08-27T03:45:28.050Z,20.33
2022-08-27T03:47:58.301Z,20.63
2022-08-27T03:50:29.018Z,21.30
2022-08-27T03:52:59.194Z,21.45
2022-08-27T03:55:29.602Z,20.70
2022-08-27T03:58:02.432Z,18.25
2022-08-27T04:00:32.898Z,19.05
2022-08-27T04:03:03.275Z,19.77
2022-08-27T04:05:33.544Z,21.38
2022-08-27T04:08:04.053Z,22.05
2022-08-27T04:10:34.946Z,20.40
2022-08-27T04:13:07.947Z,22.58
2022-08-27T04:15:40.473Z,21.77
2022-08-27T04:18:12.201Z,20.98
2022-08-27T04:20:42.584Z,21.50
2022-08-27T04:23:12.909Z,21.13
2022-08-27T04:25:43.819Z,22.27
2022-08-27T04:28:18.458Z,20.75
2022-08-27T04:30:49.953Z,21.95
2022-08-27T04:33:20.546Z,23.55
2022-08-27T04:35:50.751Z,22.00
2022-08-27T04:38:21.332Z,20.20
2022-08-27T04:43:36.512Z,22.80
2022-08-27T04:46:07.184Z,22.75
2022-08-27T04:48:38.531Z,22.63
2022-08-27T04:51:09.339Z,22.75
2022-08-27T04:53:42.688Z,22.77
2022-08-27T04:56:18.010Z,22.63
2022-08-27T04:58:51.034Z,22.95
2022-08-27T05:01:23.598Z,23.13
2022-08-27T05:03:54.581Z,21.55
2022-08-27T05:06:25.987Z,22.17
2022-08-27T05:08:57.642Z,23.23
2022-08-27T05:11:34.575Z,21.65
2022-08-27T05:14:10.479Z,20.38
2022-08-27T05:16:41.569Z,20.88
2022-08-27T05:19:14.766Z,20.55
2022-08-27T05:21:49.935Z,20.98
2022-08-27T05:24:21.450Z,20.10
2022-08-27T05:26:52.832Z,18.88
2022-08-27T05:29:25.674Z,19.50
2022-08-27T05:31:56.551Z,18.07
2022-08-27T05:34:27.685Z,18.40
2022-08-27T05:36:58.033Z,19.70
2022-08-27T05:39:28.287Z,19.90
2022-08-27T05:41:59.873Z,20.00
2022-08-27T05:44:41.303Z,18.65
2022-08-27T05:47:12.994Z,19.48
2022-08-27T05:49:43.198Z,19.67
2022-08-27T05:52:14.679Z,18.90
2022-08-27T05:54:44.932Z,19.23
2022-08-27T05:57:15.299Z,20.02
2022-08-27T06:00:00.550Z,19.55
2022-08-27T06:02:31.227Z,19.48
2022-08-27T06:05:01.461Z,22.52
2022-08-27T06:07:31.694Z,19.45
2022-08-27T06:10:03.628Z,19.98
2022-08-27T06:12:34.365Z,20.02
2022-08-27T06:15:08.808Z,20.08
2022-08-27T06:17:39.460Z,21.58
2022-08-27T06:22:41.193Z,21.80
2022-08-27T06:25:12.297Z,21.50
2022-08-27T06:27:42.635Z,22.15
2022-08-27T06:30:17.632Z,21.90
2022-08-27T06:32:47.998Z,23.02
2022-08-27T06:35:18.367Z,23.08
2022-08-27T06:37:48.624Z,22.95
2022-08-27T06:40:19.130Z,20.77
2022-08-27T06:45:22.261Z,23.02
2022-08-27T06:47:52.495Z,22.10
2022-08-27T06:50:27.115Z,21.58
2022-08-27T06:52:57.560Z,22.73
2022-08-27T06:55:27.787Z,21.25
2022-08-27T06:57:58.009Z,20.38
2022-08-27T07:00:30.900Z,20.35
2022-08-27T07:03:01.744Z,21.42
2022-08-27T07:05:32.117Z,21.40
2022-08-27T07:08:02.829Z,20.05
2022-08-27T07:10:35.077Z,20.63
2022-08-27T07:13:05.278Z,20.65
2022-08-27T07:15:41.954Z,20.40
2022-08-27T07:18:12.383Z,21.65
2022-08-27T07:23:14.834Z,23.73
2022-08-27T07:25:45.493Z,25.85
2022-08-27T07:30:48.329Z,23.30
2022-08-27T07:33:18.701Z,21.40
2022-08-27T07:35:49.664Z,20.88
2022-08-27T07:38:19.991Z,20.30
2022-08-27T07:40:52.442Z,19.08
2022-08-27T07:43:35.701Z,20.00
2022-08-27T07:46:09.085Z,18.55
2022-08-27T07:48:39.342Z,18.48
2022-08-27T07:51:17.413Z,20.25
2022-08-27T07:53:48.461Z,24.50
2022-08-27T07:56:19.512Z,23.25
2022-08-27T07:58:49.695Z,23.45
2022-08-27T08:01:24.151Z,23.05
2022-08-27T08:03:54.453Z,22.08
2022-08-27T08:06:25.010Z,22.80
2022-08-27T08:11:25.293Z,20.60
2022-08-27T08:13:55.548Z,21.52
2022-08-27T08:16:31.801Z,21.13
2022-08-27T08:19:03.066Z,19.83
2022-08-27T08:21:33.332Z,19.95
2022-08-27T08:24:03.597Z,19.60
2022-08-27T08:26:34.100Z,19.90
2022-08-27T08:29:05.062Z,19.73
2022-08-27T08:31:37.953Z,18.50
2022-08-27T08:34:08.190Z,18.80
2022-08-27T08:36:38.485Z,17.42
2022-08-27T08:39:08.776Z,18.55
2022-08-27T08:41:47.205Z,16.80
2022-08-27T08:44:35.623Z,17.90
2022-08-27T08:47:14.019Z,17.45
2022-08-27T08:49:54.811Z,17.05
2022-08-27T08:52:40.361Z,16.63
2022-08-27T08:55:36.050Z,17.23
2022-08-27T08:58:18.189Z,17.30
2022-08-27T09:00:54.623Z,17.58
2022-08-27T09:03:28.097Z,19.95
2022-08-27T09:06:05.725Z,19.02
2022-08-27T09:08:41.808Z,18.65
2022-08-27T09:11:24.271Z,18.08
2022-08-27T09:13:59.758Z,18.20
2022-08-27T09:16:30.298Z,17.38
2022-08-27T09:21:51.518Z,18.00
2022-08-27T09:24:33.697Z,19.58
2022-08-27T09:27:03.961Z,17.83
2022-08-27T09:29:34.272Z,21.77
2022-08-27T09:32:10.697Z,17.63
2022-08-27T09:34:46.665Z,17.95
2022-08-27T09:37:20.828Z,18.13
2022-08-27T09:39:54.913Z,18.08
2022-08-27T09:42:32.807Z,17.25
2022-08-27T09:45:03.269Z,19.52
2022-08-27T09:47:33.700Z,18.27
2022-08-27T09:50:11.065Z,18.00
2022-08-27T09:52:55.091Z,16.88
2022-08-27T09:55:41.667Z,17.10
2022-08-27T09:58:22.701Z,17.70
2022-08-27T10:01:04.063Z,16.48
2022-08-27T10:03:34.844Z,16.48
2022-08-27T10:06:08.829Z,15.70
2022-08-27T10:08:45.713Z,16.70
2022-08-27T10:11:23.064Z,15.65
2022-08-27T10:14:01.657Z,14.43
2022-08-27T10:16:58.577Z,15.20
2022-08-27T10:19:49.952Z,14.93
2022-08-27T10:22:39.083Z,15.57
2022-08-27T10:25:20.328Z,13.48
2022-08-27T10:28:02.002Z,13.45
2022-08-27T10:30:49.041Z,13.98
2022-08-27T10:33:29.494Z,15.10
2022-08-27T10:36:14.034Z,14.18
2022-08-27T10:38:56.377Z,14.25
2022-08-27T10:41:35.026Z,14.13
2022-08-27T10:44:32.329Z,14.65
2022-08-27T10:47:23.467Z,14.10
2022-08-27T10:50:06.465Z,15.50
2022-08-27T10:52:44.965Z,14.93
2022-08-27T10:55:27.655Z,15.02
2022-08-27T10:58:27.268Z,15.10
2022-08-27T11:01:05.164Z,16.25
2022-08-27T11:03:45.080Z,15.48
2022-08-27T11:06:25.736Z,15.73
2022-08-27T11:09:07.538Z,14.82
2022-08-27T11:14:41.692Z,14.20
2022-08-27T11:17:19.248Z,14.73
2022-08-27T11:19:57.698Z,14.68
2022-08-27T11:22:37.091Z,14.38
2022-08-27T11:25:23.317Z,13.63
2022-08-27T11:27:58.187Z,13.20
2022-08-27T11:30:42.234Z,12.45
2022-08-27T11:33:21.761Z,12.80
2022-08-27T11:36:16.546Z,13.43
2022-08-27T11:38:57.934Z,13.57
2022-08-27T11:42:05.317Z,13.88
2022-08-27T11:44:44.484Z,14.52
2022-08-27T11:47:18.476Z,13.20
2022-08-27T11:49:52.862Z,14.60
2022-08-27T11:52:30.025Z,13.52
2022-08-27T11:55:17.449Z,13.18
2022-08-27T11:57:48.008Z,13.75
2022-08-27T12:03:03.975Z,14.85
2022-08-27T12:05:45.052Z,13.88
2022-08-27T12:08:30.905Z,14.20
2022-08-27T12:11:23.582Z,13.95
2022-08-27T12:14:04.524Z,11.95
2022-08-27T12:16:48.664Z,11.82
2022-08-27T12:19:34.111Z,13.10
2022-08-27T12:22:26.479Z,13.35
2022-08-27T12:24:59.990Z,10.75
2022-08-27T12:27:37.362Z,11.80
2022-08-27T12:30:25.676Z,12.20
2022-08-27T12:33:01.335Z,13.45
2022-08-27T12:35:40.624Z,15.02
2022-08-27T12:38:18.837Z,14.55
2022-08-27T12:40:53.726Z,11.57
2022-08-27T12:43:27.784Z,7.60
2022-08-27T12:46:04.090Z,6.43
2022-08-27T12:48:43.860Z,6.10
2022-08-27T12:51:19.564Z,5.45
2022-08-27T12:53:55.683Z,5.95
2022-08-27T12:56:55.440Z,6.20
2022-08-27T13:00:02.326Z,6.10
2022-08-27T13:03:14.683Z,6.60
2022-08-27T13:05:50.900Z,7.38
2022-08-27T13:08:26.672Z,7.50
2022-08-27T13:10:57.915Z,7.97
2022-08-27T13:13:28.569Z,8.80
2022-08-27T13:18:31.662Z,10.85
2022-08-27T13:23:48.502Z,10.23
2022-08-27T13:26:25.736Z,10.40
2022-08-27T13:29:02.646Z,11.18
2022-08-27T13:31:35.902Z,12.10
2022-08-27T13:34:08.866Z,13.32
2022-08-27T13:36:59.756Z,13.85
2022-08-27T13:39:31.036Z,14.10
2022-08-27T13:42:03.202Z,13.02
2022-08-27T13:44:37.566Z,13.98
2022-08-27T13:47:11.673Z,13.88
2022-08-27T13:49:41.987Z,13.98
2022-08-27T13:52:27.294Z,14.52
2022-08-27T13:55:05.958Z,14.15
2022-08-27T13:57:45.837Z,14.80
2022-08-27T14:00:21.876Z,15.30
2022-08-27T14:02:56.287Z,15.82
2022-08-27T14:05:36.987Z,15.98
2022-08-27T14:08:20.077Z,16.13
2022-08-27T14:10:53.679Z,17.55
2022-08-27T14:13:28.922Z,17.27
2022-08-27T14:16:01.526Z,16.30
2022-08-27T14:18:58.290Z,16.63
2022-08-27T14:21:26.177Z,15.65
2022-08-27T14:26:29.713Z,15.88
2022-08-27T14:29:01.344Z,15.65
2022-08-27T14:31:31.875Z,16.02
2022-08-27T14:34:02.609Z,16.20
2022-08-27T14:36:34.746Z,15.77
2022-08-27T14:39:09.105Z,16.48
2022-08-27T14:41:42.830Z,16.33
2022-08-27T14:44:15.144Z,15.90
2022-08-27T14:46:45.478Z,16.15
2022-08-27T14:49:25.127Z,15.75
2022-08-27T14:51:55.450Z,15.25
2022-08-27T14:54:29.150Z,14.98
2022-08-27T14:57:06.354Z,14.85
2022-08-27T14:59:36.802Z,14.52
2022-08-27T15:04:40.835Z,12.48
2022-08-27T15:07:14.735Z,12.75
2022-08-27T15:09:48.201Z,11.95
2022-08-27T15:12:26.552Z,11.77
2022-08-27T15:14:57.337Z,8.77
2022-08-27T15:20:08.377Z,6.50
2022-08-27T15:22:43.939Z,6.07
2022-08-27T15:25:18.530Z,4.60
2022-08-27T15:27:48.819Z,4.18
2022-08-27T15:30:21.302Z,4.60
2022-08-27T15:32:52.063Z,4.93
2022-08-27T15:35:26.971Z,5.00
2022-08-27T15:37:59.573Z,4.55
2022-08-27T15:40:36.425Z,4.40
2022-08-27T15:43:09.220Z,4.18
2022-08-27T15:45:39.526Z,4.03
2022-08-27T15:48:10.828Z,4.10
2022-08-27T15:50:41.498Z,3.72
2022-08-27T15:53:13.753Z,5.15
2022-08-27T15:55:47.694Z,4.53
2022-08-27T15:58:17.873Z,4.10
2022-08-27T16:00:49.334Z,4.38
2022-08-27T16:03:35.594Z,4.40
2022-08-27T16:06:07.583Z,4.68
2022-08-27T16:08:41.866Z,5.28
2022-08-27T16:11:15.152Z,5.28
2022-08-27T16:13:46.175Z,6.13
2022-08-27T16:16:18.254Z,6.13
2022-08-27T16:18:48.511Z,6.38
2022-08-27T16:21:18.812Z,6.38
2022-08-27T16:23:49.214Z,6.32
2022-08-27T16:26:22.179Z,6.90
2022-08-27T16:28:52.706Z,6.55
2022-08-27T16:31:23.140Z,6.72
2022-08-27T16:33:53.487Z,7.00
2022-08-27T16:36:23.679Z,7.25
2022-08-27T16:38:54.440Z,7.45
2022-08-27T16:41:27.522Z,8.05
2022-08-27T16:43:58.951Z,7.78
2022-08-27T16:46:29.154Z,7.75
2022-08-27T16:49:11.837Z,7.80
2022-08-27T16:51:43.644Z,7.90
2022-08-27T16:54:16.745Z,8.77
2022-08-27T16:56:49.830Z,8.60
2022-08-27T16:59:20.205Z,8.75
2022-08-27T17:01:53.220Z,8.93
2022-08-27T17:04:30.498Z,9.13
2022-08-27T17:07:03.765Z,6.15
2022-08-27T17:09:35.013Z,4.97
2022-08-27T17:12:08.632Z,4.90
2022-08-27T17:14:39.594Z,4.22
2022-08-27T17:17:10.825Z,3.45
2022-08-27T17:19:41.139Z,3.88
2022-08-27T17:22:11.962Z,3.67
2022-08-27T17:24:42.147Z,3.60
2022-08-27T17:27:15.115Z,3.55
2022-08-27T17:29:45.255Z,4.00
2022-08-27T17:32:15.705Z,3.70
2022-08-27T17:34:46.303Z,4.60
2022-08-27T17:39:49.166Z,4.40
2022-08-27T17:42:22.509Z,4.47
2022-08-27T17:44:52.624Z,4.72
2022-08-27T17:47:24.844Z,4.53
2022-08-27T17:49:56.236Z,4.50
2022-08-27T17:52:26.462Z,5.00
2022-08-27T17:54:58.731Z,5.07
2022-08-27T17:57:40.278Z,5.28
2022-08-27T18:00:14.946Z,5.20
2022-08-27T18:02:47.643Z,5.07
2022-08-27T18:05:20.644Z,4.93
2022-08-27T18:07:51.056Z,67.18
2022-08-27T18:10:26.923Z,31.58
2022-08-27T18:13:01.095Z,7.43
2022-08-27T18:15:34.342Z,4.85
2022-08-27T18:18:05.276Z,5.57
2022-08-27T18:20:37.170Z,5.32
2022-08-27T18:23:11.046Z,4.82
2022-08-27T18:25:42.672Z,4.47
2022-08-27T18:28:17.062Z,5.05
2022-08-27T18:30:49.344Z,4.43
2022-08-27T18:33:19.769Z,4.65
2022-08-27T18:35:49.996Z,4.80
2022-08-27T18:38:22.048Z,5.25
2022-08-27T18:40:53.267Z,4.93
2022-08-27T18:43:34.714Z,5.00
2022-08-27T18:46:06.142Z,5.20
2022-08-27T18:48:37.403Z,5.38
2022-08-27T18:51:11.774Z,5.32
2022-08-27T18:53:43.013Z,5.45
2022-08-27T18:56:17.229Z,5.13
2022-08-27T18:58:51.827Z,5.40
2022-08-27T19:01:27.932Z,5.72
2022-08-27T19:03:59.921Z,5.70
2022-08-27T19:06:30.191Z,5.93
2022-08-27T19:09:00.512Z,5.95
2022-08-27T19:11:31.514Z,6.18
2022-08-27T19:14:04.299Z,6.55
2022-08-27T19:16:44.961Z,6.55
2022-08-27T19:21:51.390Z,6.45
2022-08-27T19:24:22.556Z,7.32
2022-08-27T19:26:53.714Z,7.50
2022-08-27T19:29:26.526Z,7.65
2022-08-27T19:31:56.834Z,7.60
2022-08-27T19:34:27.056Z,7.40
2022-08-27T19:37:05.568Z,8.40
2022-08-27T19:39:37.284Z,8.85
2022-08-27T19:42:08.780Z,8.98
2022-08-27T19:44:41.636Z,8.82
2022-08-27T19:47:14.297Z,10.75
2022-08-27T19:49:46.417Z,11.65
2022-08-27T19:52:16.657Z,11.25
2022-08-27T19:55:12.110Z,9.98
2022-08-27T19:57:37.888Z,9.50
2022-08-27T20:00:15.083Z,9.98
2022-08-27T20:02:45.308Z,9.38
2022-08-27T20:05:18.294Z,8.75
2022-08-27T20:07:49.769Z,7.50
2022-08-27T20:12:52.080Z,6.25
2022-08-27T20:15:25.847Z,5.75
2022-08-27T20:17:59.430Z,5.45
2022-08-27T20:20:31.716Z,5.15
2022-08-27T20:23:02.945Z,7.30
2022-08-27T20:25:34.280Z,6.45
2022-08-27T20:28:28.289Z,5.75
2022-08-27T20:30:59.620Z,5.40
2022-08-27T20:33:29.961Z,6.10
2022-08-27T20:36:03.117Z,7.10
2022-08-27T20:38:33.521Z,7.53
2022-08-27T20:41:04.135Z,7.68
2022-08-27T20:46:07.420Z,7.70
2022-08-27T20:48:41.266Z,8.93
2022-08-27T20:51:11.997Z,8.63
2022-08-27T20:53:42.212Z,8.38
2022-08-27T20:56:12.463Z,8.93
2022-08-27T20:58:55.150Z,8.98
2022-08-27T21:01:28.167Z,9.63
2022-08-27T21:04:00.737Z,9.93
2022-08-27T21:06:33.380Z,10.73
2022-08-27T21:09:03.897Z,10.38
2022-08-27T21:11:34.165Z,10.18
2022-08-27T21:14:04.776Z,11.05
2022-08-27T21:16:39.189Z,11.35
2022-08-27T21:19:09.402Z,11.82
2022-08-27T21:21:39.613Z,11.85
2022-08-27T21:24:10.021Z,11.50
2022-08-27T21:26:40.397Z,11.40
2022-08-27T21:29:10.579Z,11.80
2022-08-27T21:31:43.654Z,12.35
2022-08-27T21:34:13.964Z,11.95
2022-08-27T21:36:44.152Z,12.57
2022-08-27T21:39:14.375Z,12.70
2022-08-27T21:41:44.595Z,14.15
2022-08-27T21:44:14.809Z,14.07
2022-08-27T21:46:47.635Z,13.93
2022-08-27T21:49:17.929Z,14.68
2022-08-27T21:51:48.138Z,14.48
2022-08-27T21:54:18.485Z,14.38
2022-08-27T21:56:49.082Z,16.25
2022-08-27T22:09:32.514Z,17.67
2022-08-27T22:12:03.346Z,15.95
2022-08-27T22:14:33.827Z,16.13
2022-08-27T22:17:06.973Z,16.08
2022-08-27T22:19:37.192Z,16.00
2022-08-27T22:22:07.668Z,16.55
2022-08-27T22:24:37.859Z,15.20
2022-08-27T22:27:08.446Z,14.63
2022-08-27T22:29:38.824Z,16.20
2022-08-27T22:32:11.667Z,15.77
2022-08-27T22:34:42.176Z,14.43
2022-08-27T22:37:12.413Z,14.93
2022-08-27T22:39:42.707Z,16.17
2022-08-27T22:44:48.316Z,15.75
2022-08-27T22:47:21.248Z,16.23
2022-08-27T22:49:52.816Z,16.52
2022-08-27T22:52:28.308Z,16.48
2022-08-27T22:54:58.709Z,16.83
2022-08-27T22:57:29.488Z,16.90
2022-08-27T23:00:00.741Z,17.05
2022-08-27T23:02:33.482Z,17.02
2022-08-27T23:05:06.626Z,17.38
2022-08-27T23:07:37.690Z,17.00
2022-08-27T23:10:10.387Z,15.98
2022-08-27T23:12:40.896Z,16.70
2022-08-27T23:15:18.606Z,15.95
2022-08-27T23:17:51.876Z,16.30
2022-08-27T23:20:23.889Z,16.58
2022-08-27T23:22:55.862Z,17.38
2022-08-27T23:25:40.871Z,16.40
2022-08-27T23:28:15.407Z,15.95
2022-08-27T23:30:47.190Z,15.95
2022-08-27T23:33:20.180Z,15.82
2022-08-27T23:35:51.912Z,15.48
2022-08-27T23:38:25.076Z,14.85
2022-08-27T23:40:55.996Z,14.82
2022-08-27T23:43:26.603Z,15.45
2022-08-27T23:45:57.433Z,14.55
2022-08-27T23:48:30.606Z,13.35
2022-08-27T23:51:00.857Z,12.07
2022-08-27T23:53:31.055Z,11.15
2022-08-27T23:56:01.229Z,10.43
2022-08-27T23:58:31.565Z,9.77
